Latest Weather Observations for Charlton

IDV60801

Issued at 10:02 am EST Wednesday 8 July 2015 (issued every 30 minutes, with the page automatically refreshed every 10 minutes)

About weather observations | Map of weather stations | Latest weather observations for VIC | Other Formats
Station Details ID: 080128 Name: CHARLTON Lat: -36.28 Lon: 143.33 Height: 131.7 m
Data from the previous 72 hours. | See also: Recent months at Charlton
Date/Time
EST
Temp
°C
App
Temp
°C
Dew
Point
Rel
Hum
%
Delta-T
°C
Wind Press
QNH
hPa
Press
MSL
hPa
Rain
since 9 am
mm
Dir
 
Spd
km/h
Gust
km/h
Spd
kts
Gust
kts
08/10:00am 9.1 6.1 7.7 91 0.7 ENE 13 19 7 10 1027.1 1027.3 0.0
08/09:30am 7.5 5.2 7.5 100 0.0 ENE 9 13 5 7 1026.9 1027.1 0.0
08/09:00am 5.0 2.5 5.0 100 0.0 E 7 7 4 4 1026.7 1026.9 0.0
08/08:30am 2.2 0.6 2.2 100 0.0 CALM 0 0 0 0 1026.5 1026.7 0.0
08/08:00am 1.9 -0.9 1.8 99 0.0 ENE 6 7 3 4 1026.1 1026.4 0.0
08/07:30am 1.2 -0.6 1.2 100 0.0 CALM 0 0 0 0 1025.9 1026.2 0.0
08/07:00am 3.1 -0.1 3.1 100 0.0 ENE 9 13 5 7 1025.6 1025.9 0.0
08/06:30am 1.1 -2.1 1.0 99 0.0 ENE 7 9 4 5 1025.4 1025.7 0.0
08/06:00am 1.2 -0.6 1.1 99 0.0 CALM 0 0 0 0 1025.2 1025.5 0.0
08/05:30am 0.5 -1.4 0.4 99 0.0 CALM 0 0 0 0 1025.0 1025.3 0.0
08/05:00am 1.3 -0.5 1.2 99 0.0 CALM 0 0 0 0 1024.7 1025.0 0.0
08/04:30am 1.6 -0.2 1.5 99 0.0 CALM 0 0 0 0 1024.7 1025.0 0.0
08/04:00am 1.7 0.0 1.6 99 0.0 CALM 0 2 0 1 1024.7 1025.0 0.0
08/03:30am 1.4 -0.4 1.3 99 0.0 CALM 0 0 0 0 1024.6 1024.9 0.0
08/03:00am 1.5 -0.3 1.4 99 0.0 CALM 0 6 0 3 1024.6 1024.9 0.0
08/02:30am 1.9 -0.9 1.8 99 0.0 S 6 6 3 3 1024.7 1025.0 0.0
08/02:00am 2.5 0.9 2.4 99 0.0 CALM 0 0 0 0 1024.7 1025.0 0.0
08/01:30am 3.0 1.5 2.9 99 0.0 CALM 0 0 0 0 1024.7 1025.0 0.0
08/01:00am 3.1 1.2 3.0 99 0.0 S 2 7 1 4 1024.7 1025.0 0.0
08/12:30am 3.6 1.8 3.5 99 0.0 S 2 6 1 3 1024.9 1025.2 0.0
08/12:00am 4.4 2.8 4.3 99 0.0 S 2 9 1 5 1024.9 1025.2 0.0
 
Date/Time
EST
Temp
°C
App
Temp
°C
Dew
Point
Rel
Hum
%
Delta-T
°C
Wind Press
QNH
hPa
Press
MSL
hPa
Rain
since 9 am
mm
Dir
 
Spd
km/h
Gust
km/h
Spd
kts
Gust
kts
07/11:30pm 4.9 2.6 4.9 100 0.0 S 6 7 3 4 1024.8 1025.1 0.0
07/11:00pm 5.3 3.1 5.2 99 0.0 SW 6 9 3 5 1024.8 1025.1 0.0
07/10:30pm 4.3 3.0 4.2 99 0.0 CALM 0 0 0 0 1024.7 1025.0 0.0
07/10:00pm 4.4 3.1 4.3 99 0.0 CALM 0 0 0 0 1024.5 1024.8 0.0
07/09:30pm 3.8 2.4 3.7 99 0.0 CALM 0 0 0 0 1024.4 1024.7 0.0
07/09:00pm 4.0 2.6 3.6 97 0.2 CALM 0 0 0 0 1024.3 1024.6 0.0
07/08:30pm 4.3 2.9 3.7 96 0.3 CALM 0 0 0 0 1024.2 1024.5 0.0
07/08:00pm 5.0 3.7 4.3 95 0.3 CALM 0 0 0 0 1023.9 1024.2 0.0
07/07:30pm 6.4 5.0 5.5 94 0.4 NNW 2 7 1 4 1023.7 1024.0 0.0
07/07:00pm 7.1 5.0 5.6 90 0.7 NW 6 7 3 4 1023.4 1023.7 0.0
07/06:30pm 7.9 6.5 5.5 85 1.1 NE 2 6 1 3 1023.2 1023.5 0.0
07/06:00pm 9.2 7.1 5.6 78 1.6 NNE 6 6 3 3 1022.8 1023.1 0.0
07/05:30pm 11.0 9.0 6.4 73 2.2 NE 6 9 3 5 1022.6 1022.9 0.0
07/05:00pm 12.3 10.1 6.4 67 2.8 ENE 7 9 4 5 1022.4 1022.7 0.0
07/04:30pm 13.2 10.7 6.5 64 3.2 ENE 9 11 5 6 1022.3 1022.6 0.0
07/04:00pm 13.7 10.8 6.6 62 3.4 ENE 11 17 6 9 1022.1 1022.4 0.0
07/03:30pm 13.3 10.4 6.6 64 3.2 E 11 15 6 8 1021.9 1022.1 0.0
07/03:00pm 14.0 11.2 6.8 62 3.5 ENE 11 15 6 8 1021.8 1022.0 0.0
07/02:30pm 13.8 11.0 6.9 63 3.4 ENE 11 15 6 8 1021.7 1021.9 0.0
07/02:00pm 13.5 10.3 6.8 64 3.2 NNE 13 20 7 11 1021.6 1021.8 0.0
07/01:30pm 13.3 10.1 6.9 65 3.1 ENE 13 19 7 10 1021.8 1022.0 0.0
07/01:00pm 13.0 10.1 6.6 65 3.1 NE 11 17 6 9 1022.0 1022.2 0.0
07/12:30pm 12.5 9.2 6.5 67 2.9 NE 13 17 7 9 1022.1 1022.4 0.0
07/12:00pm 12.0 8.3 6.5 69 2.6 ENE 15 20 8 11 1022.3 1022.6 0.0
07/11:30am 11.4 8.2 6.7 73 2.2 E 13 19 7 10 1022.5 1022.8 0.0
07/11:00am 10.8 8.4 7.1 78 1.8 ENE 9 15 5 8 1022.7 1023.0 0.0
07/10:30am 9.4 7.0 6.8 84 1.2 ENE 9 15 5 8 1022.9 1023.2 0.0
07/10:00am 7.9 5.4 6.5 91 0.6 ENE 9 15 5 8 1022.7 1023.0 0.0
07/09:30am 7.1 5.1 7.1 100 0.0 E 7 11 4 6 1022.5 1022.8 0.0
07/09:00am 6.3 3.7 6.3 100 0.0 ESE 9 11 5 6 1022.3 1022.6 0.0
07/08:30am 5.7 2.6 5.7 100 0.0 SE 11 15 6 8 1022.1 1022.4 0.0
07/08:00am 5.1 1.9 5.1 100 0.0 ESE 11 15 6 8 1021.8 1022.0 0.0
07/07:30am 5.3 2.1 5.3 100 0.0 ESE 11 15 6 8 1021.4 1021.6 0.0
07/07:00am 5.3 2.1 5.3 100 0.0 ESE 11 17 6 9 1021.1 1021.3 0.0
07/06:30am 4.7 1.8 4.7 100 0.0 SE 9 13 5 7 1020.6 1020.8 0.0
07/06:00am 4.2 1.8 4.2 100 0.0 ESE 6 7 3 4 1020.2 1020.4 0.0
07/05:30am 4.0 1.0 4.0 100 0.0 ESE 9 11 5 6 1019.8 1020.0 0.0
07/05:00am 3.3 0.1 3.2 99 0.0 SE 9 11 5 6 1019.5 1019.7 0.0
07/04:30am 1.1 -1.9 1.0 99 0.0 SE 6 7 3 4 1019.2 1019.4 0.0
07/04:00am 1.0 -0.8 0.9 99 0.0 CALM 0 0 0 0 1019.2 1019.4 0.0
07/03:30am 1.8 -0.7 1.7 99 0.0 S 4 7 2 4 1019.2 1019.4 0.0
07/03:00am 1.9 -0.9 1.8 99 0.0 SSE 6 7 3 4 1019.2 1019.4 0.0
07/02:30am 1.9 0.2 1.8 99 0.0 CALM 0 0 0 0 1019.2 1019.4 0.0
07/02:00am 2.3 0.3 2.2 99 0.0 SE 2 7 1 4 1019.0 1019.2 0.0
07/01:30am 2.6 1.0 2.5 99 0.0 CALM 0 0 0 0 1018.7 1018.9 0.0
07/01:00am 2.5 -0.4 2.4 99 0.0 SSE 7 9 4 5 1018.6 1018.8 0.0
07/12:30am 2.9 1.4 2.8 99 0.0 CALM 0 0 0 0 1018.5 1018.7 0.0
07/12:00am 2.9 0.2 2.8 99 0.0 SSE 6 9 3 5 1018.5 1018.7 0.0
 
Date/Time
EST
Temp
°C
App
Temp
°C
Dew
Point
Rel
Hum
%
Delta-T
°C
Wind Press
QNH
hPa
Press
MSL
hPa
Rain
since 9 am
mm
Dir
 
Spd
km/h
Gust
km/h
Spd
kts
Gust
kts
06/11:30pm 3.3 0.7 3.2 99 0.0 SE 6 7 3 4 1018.4 1018.6 0.0
06/11:00pm 3.8 2.4 3.7 99 0.0 CALM 0 0 0 0 1018.4 1018.6 0.0
06/10:30pm 4.1 2.8 4.0 99 0.0 CALM 0 0 0 0 1018.2 1018.5 0.0
06/10:00pm 4.2 2.4 3.6 96 0.2 SE 2 6 1 3 1018.0 1018.3 0.0
06/09:30pm 5.1 2.6 4.5 96 0.3 NE 7 9 4 5 1017.5 1017.8 0.0
06/09:00pm 5.6 4.4 4.4 92 0.5 CALM 0 6 0 3 1017.5 1017.8 0.0
06/08:30pm 6.5 4.1 5.1 91 0.6 ESE 7 9 4 5 1017.3 1017.6 0.0
06/08:00pm 7.0 4.9 5.6 91 0.6 WNW 6 7 3 4 1017.4 1017.7 0.0
06/07:30pm 7.0 4.8 5.3 89 0.8 E 6 7 3 4 1017.1 1017.4 0.0
06/07:00pm 7.9 5.7 6.0 88 0.9 ENE 7 13 4 7 1016.9 1017.2 0.0
06/06:30pm 8.2 6.0 6.0 86 1.0 E 7 9 4 5 1016.5 1016.8 0.0
06/06:00pm 8.8 6.6 6.1 83 1.2 E 7 11 4 6 1016.1 1016.4 0.0
06/05:30pm 9.7 7.8 6.8 82 1.4 ESE 6 9 3 5 1015.7 1015.9 0.0
06/05:00pm 10.8 8.8 7.3 79 1.7 ENE 7 11 4 6 1015.4 1015.6 0.0
06/04:30pm 11.8 9.1 7.3 74 2.2 NNE 11 15 6 8 1015.4 1015.6 0.0
06/04:00pm 12.4 10.1 7.3 71 2.5 N 9 13 5 7 1015.4 1015.6 0.0
06/03:30pm 12.3 10.4 7.4 72 2.4 NNE 7 11 4 6 1015.3 1015.5 0.0
06/03:00pm 11.9 9.5 7.0 72 2.4 NNE 9 13 5 7 1015.2 1015.4 0.0
06/02:30pm 11.4 8.9 6.7 73 2.2 NNE 9 15 5 8 1015.2 1015.4 0.0
06/02:00pm 11.1 8.7 7.0 76 2.0 NE 9 13 5 7 1015.3 1015.5 0.0
06/01:30pm 9.4 6.8 6.1 80 1.5 NNE 9 13 5 7 1015.6 1015.8 0.0
06/01:00pm 8.9 7.0 6.7 86 1.0 NNE 6 11 3 6 1015.9 1016.2 0.0
06/12:30pm 7.8 5.7 5.9 88 0.9 N 6 9 3 5 1016.3 1016.6 0.0
06/12:00pm 7.6 4.5 5.4 86 1.0 NE 11 15 6 8 1016.3 1016.6 0.0
06/11:30am 7.7 4.8 4.8 82 1.3 NNE 9 15 5 8 1016.6 1016.9 0.0
06/11:00am 7.7 4.0 4.5 80 1.4 NNE 13 20 7 11 1016.7 1017.0 0.0
06/10:30am 7.4 3.6 4.0 79 1.5 NNE 13 20 7 11 1016.8 1017.1 0.0
06/10:00am 6.9 3.6 4.6 85 1.0 NE 11 15 6 8 1016.8 1017.1 0.0
06/09:30am 6.5 3.1 3.8 83 1.2 NE 11 17 6 9 1016.8 1017.1 0.0
06/09:00am 6.0 2.9 3.8 86 0.9 NNE 9 13 5 7 1016.9 1017.2 0.0
06/08:30am 6.2 2.3 3.2 81 1.3 NNE 13 22 7 12 1016.8 1017.1 0.0
06/08:00am 6.2 2.3 3.2 81 1.3 NNE 13 17 7 9 1016.5 1016.8 0.0
06/07:30am 6.2 2.6 3.0 80 1.3 NE 11 17 6 9 1016.6 1016.9 0.0
06/07:00am 6.3 2.3 2.6 77 1.5 NNE 13 17 7 9 1016.5 1016.8 0.0
06/06:30am 6.3 3.0 2.6 77 1.5 NNE 9 13 5 7 1016.3 1016.6 0.0
06/06:00am 6.2 2.5 2.5 77 1.5 NNE 11 13 6 7 1016.3 1016.6 0.0
06/05:30am 6.3 3.0 2.4 76 1.6 NNE 9 13 5 7 1016.5 1016.8 0.0
06/05:00am 6.4 3.1 2.5 76 1.6 NNE 9 15 5 8 1016.6 1016.9 0.0
06/04:30am 6.6 3.3 2.5 75 1.7 NNE 9 11 5 6 1016.8 1017.1 0.0
06/04:00am 6.6 3.3 2.5 75 1.7 NNE 9 11 5 6 1016.8 1017.1 0.0
06/03:30am 6.6 3.3 2.5 75 1.7 NNE 9 11 5 6 1017.0 1017.3 0.0
06/03:00am 6.5 3.2 2.4 75 1.7 NNE 9 11 5 6 1017.2 1017.5 0.0
06/02:30am 6.5 3.2 2.4 75 1.7 NNE 9 13 5 7 1017.5 1017.8 0.0
06/02:00am 6.7 3.0 2.4 74 1.8 NNE 11 15 6 8 1017.6 1017.9 0.0
06/01:30am 6.5 2.8 2.2 74 1.8 NNE 11 15 6 8 1017.8 1018.1 0.0
06/01:00am 6.5 2.8 2.2 74 1.8 NNE 11 17 6 9 1018.1 1018.4 0.0
06/12:30am 6.5 2.0 2.2 74 1.8 NNE 15 20 8 11 1018.1 1018.4 0.0
06/12:00am 6.3 2.2 2.0 74 1.8 NNE 13 17 7 9 1018.5 1018.7 0.0
 
Date/Time
EST
Temp
°C
App
Temp
°C
Dew
Point
Rel
Hum
%
Delta-T
°C
Wind Press
QNH
hPa
Press
MSL
hPa
Rain
since 9 am
mm
Dir
 
Spd
km/h
Gust
km/h
Spd
kts
Gust
kts
05/11:30pm 6.4 2.3 2.1 74 1.8 NNE 13 17 7 9 1018.6 1018.8 0.0
05/11:00pm 6.4 2.6 1.9 73 1.8 NNE 11 15 6 8 1018.5 1018.7 0.0
05/10:30pm 6.5 2.7 2.0 73 1.8 NNE 11 15 6 8 1018.7 1018.9 0.0
05/10:00pm 6.8 3.1 2.1 72 1.9 NNE 11 17 6 9 1018.8 1019.0 0.0
05/09:30pm 7.2 3.1 2.1 70 2.1 NNE 13 15 7 8 1018.8 1019.0 0.0
05/09:00pm 7.9 4.2 2.4 68 2.3 NNE 11 17 6 9 1018.8 1019.0 0.0
05/08:30pm 7.8 4.5 2.5 69 2.2 NNE 9 13 5 7 1018.8 1019.0 0.0
05/08:00pm 6.5 3.5 2.2 74 1.8 NNE 7 11 4 6 1018.8 1019.0 0.0
05/07:30pm 6.9 4.1 1.8 70 2.1 NNE 6 7 3 4 1018.8 1019.0 0.0
05/07:00pm 7.9 4.9 2.2 67 2.4 NNE 7 9 4 5 1018.7 1018.9 0.0
05/06:30pm 8.6 5.8 2.2 64 2.7 NNE 6 7 3 4 1018.7 1018.9 0.0
05/06:00pm 9.9 6.9 2.3 59 3.2 N 7 9 4 5 1018.7 1018.9 0.0
05/05:30pm 10.9 7.9 2.2 55 3.7 N 7 9 4 5 1018.6 1018.8 0.0
05/05:00pm 12.1 8.8 2.3 51 4.3 NNW 9 13 5 7 1018.5 1018.7 0.0
05/04:30pm 13.2 9.6 2.7 49 4.7 NNW 11 17 6 9 1018.5 1018.7 0.0
05/04:00pm 13.7 9.6 2.3 46 5.0 NW 13 22 7 12 1018.6 1018.8 0.0
05/03:30pm 13.8 9.8 3.0 48 4.8 N 13 19 7 10 1018.6 1018.8 0.0
05/03:00pm 13.9 9.9 2.8 47 5.0 NNW 13 20 7 11 1018.8 1019.0 0.0
05/02:30pm 14.0 10.1 3.2 48 4.9 NNW 13 26 7 14 1019.0 1019.2 0.0
05/02:00pm 14.0 10.1 3.5 49 4.8 NW 13 20 7 11 1019.3 1019.5 0.0
05/01:30pm 13.3 9.3 3.1 50 4.6 NW 13 20 7 11 1019.6 1019.8 0.0
05/01:00pm 13.3 9.0 3.4 51 4.4 NNW 15 24 8 13 1019.9 1020.1 0.0
05/12:30pm 12.8 9.0 3.7 54 4.1 NNW 13 22 7 12 1020.3 1020.5 0.0
05/12:00pm 12.0 8.2 3.8 57 3.7 NNW 13 22 7 12 1020.8 1021.0 0.0
05/11:30am 11.0 7.9 3.8 61 3.2 N 9 13 5 7 1021.3 1021.5 0.0
05/11:00am 9.2 6.0 3.2 66 2.6 NNW 9 13 5 7 1021.8 1022.0 0.0
05/10:30am 8.9 6.1 3.3 68 2.4 NW 7 11 4 6 1021.9 1022.1 0.0

Other Formats:

Comma delimited format used in spreadsheet applications
http://www.bom.gov.au/fwo/IDV60801/IDV60801.94839.axf

JavaScript Object Notation format (JSON) in row-major order
http://www.bom.gov.au/fwo/IDV60801/IDV60801.94839.json